sensor_id;sensor_type;location;lat;lon;timestamp;P1;durP1;ratioP1;P2;durP2;ratioP2
11797;SDS011;5956;51.428;6.682;2023-05-19T00:00:50;7.03;;;3.63;;
11797;SDS011;5956;51.428;6.682;2023-05-19T00:03:17;6.60;;;3.90;;
11797;SDS011;5956;51.428;6.682;2023-05-19T00:05:45;5.90;;;3.03;;
11797;SDS011;5956;51.428;6.682;2023-05-19T00:08:13;7.67;;;3.50;;
11797;SDS011;5956;51.428;6.682;2023-05-19T00:10:41;6.70;;;3.53;;
11797;SDS011;5956;51.428;6.682;2023-05-19T00:13:08;6.50;;;3.70;;
11797;SDS011;5956;51.428;6.682;2023-05-19T00:15:35;8.10;;;3.77;;
11797;SDS011;5956;51.428;6.682;2023-05-19T00:18:03;8.47;;;3.77;;
11797;SDS011;5956;51.428;6.682;2023-05-19T00:20:30;5.90;;;3.80;;
11797;SDS011;5956;51.428;6.682;2023-05-19T00:22:56;8.53;;;3.70;;
11797;SDS011;5956;51.428;6.682;2023-05-19T00:25:23;5.13;;;3.60;;
11797;SDS011;5956;51.428;6.682;2023-05-19T00:27:49;6.33;;;3.50;;
11797;SDS011;5956;51.428;6.682;2023-05-19T00:30:16;5.07;;;3.80;;
11797;SDS011;5956;51.428;6.682;2023-05-19T00:32:42;6.73;;;3.90;;
11797;SDS011;5956;51.428;6.682;2023-05-19T00:35:10;6.50;;;3.90;;
11797;SDS011;5956;51.428;6.682;2023-05-19T00:37:37;5.73;;;3.37;;
11797;SDS011;5956;51.428;6.682;2023-05-19T00:40:04;8.13;;;4.00;;
11797;SDS011;5956;51.428;6.682;2023-05-19T00:42:30;6.87;;;3.70;;
11797;SDS011;5956;51.428;6.682;2023-05-19T00:44:57;7.10;;;3.70;;
11797;SDS011;5956;51.428;6.682;2023-05-19T00:47:24;6.70;;;3.80;;
11797;SDS011;5956;51.428;6.682;2023-05-19T00:49:50;6.33;;;3.53;;
11797;SDS011;5956;51.428;6.682;2023-05-19T00:52:18;5.73;;;3.47;;
11797;SDS011;5956;51.428;6.682;2023-05-19T00:54:45;5.70;;;3.40;;
11797;SDS011;5956;51.428;6.682;2023-05-19T00:57:12;7.03;;;4.17;;
11797;SDS011;5956;51.428;6.682;2023-05-19T00:59:39;5.73;;;3.83;;
11797;SDS011;5956;51.428;6.682;2023-05-19T01:02:05;7.27;;;4.37;;
11797;SDS011;5956;51.428;6.682;2023-05-19T01:04:32;7.77;;;4.47;;
11797;SDS011;5956;51.428;6.682;2023-05-19T01:07:01;9.53;;;4.53;;
11797;SDS011;5956;51.428;6.682;2023-05-19T01:09:29;6.43;;;4.23;;
11797;SDS011;5956;51.428;6.682;2023-05-19T01:11:56;11.10;;;4.80;;
11797;SDS011;5956;51.428;6.682;2023-05-19T01:14:22;5.37;;;4.27;;
11797;SDS011;5956;51.428;6.682;2023-05-19T01:16:49;6.40;;;4.07;;
11797;SDS011;5956;51.428;6.682;2023-05-19T01:19:24;6.63;;;4.27;;
11797;SDS011;5956;51.428;6.682;2023-05-19T01:22:10;8.47;;;4.20;;
11797;SDS011;5956;51.428;6.682;2023-05-19T01:24:48;7.27;;;4.23;;
11797;SDS011;5956;51.428;6.682;2023-05-19T01:32:51;8.57;;;4.50;;
11797;SDS011;5956;51.428;6.682;2023-05-19T01:35:18;6.10;;;4.30;;
11797;SDS011;5956;51.428;6.682;2023-05-19T01:37:45;8.00;;;4.40;;
11797;SDS011;5956;51.428;6.682;2023-05-19T01:40:12;6.27;;;4.03;;
11797;SDS011;5956;51.428;6.682;2023-05-19T01:42:38;5.30;;;3.90;;
11797;SDS011;5956;51.428;6.682;2023-05-19T01:45:06;6.47;;;3.70;;
11797;SDS011;5956;51.428;6.682;2023-05-19T01:47:34;4.43;;;3.97;;
11797;SDS011;5956;51.428;6.682;2023-05-19T01:50:04;6.37;;;4.23;;
11797;SDS011;5956;51.428;6.682;2023-05-19T01:52:30;4.43;;;3.80;;
11797;SDS011;5956;51.428;6.682;2023-05-19T01:54:57;5.77;;;3.80;;
11797;SDS011;5956;51.428;6.682;2023-05-19T01:57:27;10.47;;;4.00;;
11797;SDS011;5956;51.428;6.682;2023-05-19T01:59:58;5.67;;;3.63;;
11797;SDS011;5956;51.428;6.682;2023-05-19T02:02:31;5.30;;;3.90;;
11797;SDS011;5956;51.428;6.682;2023-05-19T02:05:02;6.43;;;3.77;;
11797;SDS011;5956;51.428;6.682;2023-05-19T02:07:36;6.00;;;4.30;;
11797;SDS011;5956;51.428;6.682;2023-05-19T02:10:05;6.30;;;4.53;;
11797;SDS011;5956;51.428;6.682;2023-05-19T02:12:33;7.50;;;4.70;;
11797;SDS011;5956;51.428;6.682;2023-05-19T02:15:02;10.93;;;5.60;;
11797;SDS011;5956;51.428;6.682;2023-05-19T02:17:29;9.03;;;5.23;;
11797;SDS011;5956;51.428;6.682;2023-05-19T02:19:57;8.33;;;4.63;;
11797;SDS011;5956;51.428;6.682;2023-05-19T02:22:24;8.80;;;5.13;;
11797;SDS011;5956;51.428;6.682;2023-05-19T02:24:52;5.97;;;4.83;;
11797;SDS011;5956;51.428;6.682;2023-05-19T02:27:20;6.60;;;4.40;;
11797;SDS011;5956;51.428;6.682;2023-05-19T02:29:47;10.63;;;6.00;;
11797;SDS011;5956;51.428;6.682;2023-05-19T02:32:13;8.07;;;4.63;;
11797;SDS011;5956;51.428;6.682;2023-05-19T02:34:40;7.87;;;4.70;;
11797;SDS011;5956;51.428;6.682;2023-05-19T02:37:09;5.67;;;4.30;;
11797;SDS011;5956;51.428;6.682;2023-05-19T02:39:36;8.73;;;4.70;;
11797;SDS011;5956;51.428;6.682;2023-05-19T02:42:04;6.13;;;4.30;;
11797;SDS011;5956;51.428;6.682;2023-05-19T02:44:31;7.80;;;4.43;;
11797;SDS011;5956;51.428;6.682;2023-05-19T02:46:57;7.17;;;4.30;;
11797;SDS011;5956;51.428;6.682;2023-05-19T02:49:24;10.33;;;4.47;;
11797;SDS011;5956;51.428;6.682;2023-05-19T02:51:50;7.90;;;3.77;;
11797;SDS011;5956;51.428;6.682;2023-05-19T02:54:16;8.43;;;4.47;;
11797;SDS011;5956;51.428;6.682;2023-05-19T02:56:43;9.67;;;4.90;;
11797;SDS011;5956;51.428;6.682;2023-05-19T02:59:11;7.10;;;5.20;;
11797;SDS011;5956;51.428;6.682;2023-05-19T03:01:37;7.07;;;4.63;;
11797;SDS011;5956;51.428;6.682;2023-05-19T03:04:04;6.87;;;4.50;;
11797;SDS011;5956;51.428;6.682;2023-05-19T03:06:30;8.33;;;4.93;;
11797;SDS011;5956;51.428;6.682;2023-05-19T03:08:57;10.27;;;5.20;;
11797;SDS011;5956;51.428;6.682;2023-05-19T03:11:24;6.73;;;4.60;;
11797;SDS011;5956;51.428;6.682;2023-05-19T03:13:50;6.53;;;4.70;;
11797;SDS011;5956;51.428;6.682;2023-05-19T03:16:18;6.77;;;4.63;;
11797;SDS011;5956;51.428;6.682;2023-05-19T03:18:46;7.30;;;4.97;;
11797;SDS011;5956;51.428;6.682;2023-05-19T03:21:12;6.60;;;5.10;;
11797;SDS011;5956;51.428;6.682;2023-05-19T03:23:38;7.27;;;4.53;;
11797;SDS011;5956;51.428;6.682;2023-05-19T03:26:05;8.33;;;4.93;;
11797;SDS011;5956;51.428;6.682;2023-05-19T03:28:31;9.07;;;5.23;;
11797;SDS011;5956;51.428;6.682;2023-05-19T03:30:58;9.30;;;5.13;;
11797;SDS011;5956;51.428;6.682;2023-05-19T03:33:26;7.13;;;4.90;;
11797;SDS011;5956;51.428;6.682;2023-05-19T03:35:54;10.10;;;4.93;;
11797;SDS011;5956;51.428;6.682;2023-05-19T03:38:21;8.70;;;5.00;;
11797;SDS011;5956;51.428;6.682;2023-05-19T03:40:48;12.13;;;5.40;;
11797;SDS011;5956;51.428;6.682;2023-05-19T03:43:14;11.50;;;5.20;;
11797;SDS011;5956;51.428;6.682;2023-05-19T03:45:41;8.53;;;5.57;;
11797;SDS011;5956;51.428;6.682;2023-05-19T03:48:07;7.67;;;5.10;;
11797;SDS011;5956;51.428;6.682;2023-05-19T03:50:35;7.47;;;5.47;;
11797;SDS011;5956;51.428;6.682;2023-05-19T03:53:02;9.03;;;5.83;;
11797;SDS011;5956;51.428;6.682;2023-05-19T03:55:28;6.97;;;5.07;;
11797;SDS011;5956;51.428;6.682;2023-05-19T03:57:55;7.53;;;5.20;;
11797;SDS011;5956;51.428;6.682;2023-05-19T04:00:21;6.17;;;5.10;;
11797;SDS011;5956;51.428;6.682;2023-05-19T04:02:48;7.60;;;5.57;;
11797;SDS011;5956;51.428;6.682;2023-05-19T04:05:15;10.37;;;5.77;;
11797;SDS011;5956;51.428;6.682;2023-05-19T04:07:43;10.07;;;5.30;;
11797;SDS011;5956;51.428;6.682;2023-05-19T04:10:11;8.70;;;5.53;;
11797;SDS011;5956;51.428;6.682;2023-05-19T04:12:37;7.03;;;5.73;;
11797;SDS011;5956;51.428;6.682;2023-05-19T04:15:04;11.13;;;5.73;;
11797;SDS011;5956;51.428;6.682;2023-05-19T04:17:31;7.27;;;6.23;;
11797;SDS011;5956;51.428;6.682;2023-05-19T04:19:57;9.60;;;5.77;;
11797;SDS011;5956;51.428;6.682;2023-05-19T04:22:24;9.33;;;6.17;;
11797;SDS011;5956;51.428;6.682;2023-05-19T04:24:52;8.47;;;6.20;;
11797;SDS011;5956;51.428;6.682;2023-05-19T04:27:19;8.23;;;6.23;;
11797;SDS011;5956;51.428;6.682;2023-05-19T04:29:46;11.67;;;6.27;;
11797;SDS011;5956;51.428;6.682;2023-05-19T04:32:13;13.07;;;6.30;;
11797;SDS011;5956;51.428;6.682;2023-05-19T04:34:42;7.77;;;5.83;;
11797;SDS011;5956;51.428;6.682;2023-05-19T04:37:10;10.60;;;6.33;;
11797;SDS011;5956;51.428;6.682;2023-05-19T04:39:36;12.27;;;6.70;;
11797;SDS011;5956;51.428;6.682;2023-05-19T04:42:08;12.93;;;6.77;;
11797;SDS011;5956;51.428;6.682;2023-05-19T04:44:35;9.00;;;6.90;;
11797;SDS011;5956;51.428;6.682;2023-05-19T04:47:04;8.00;;;6.07;;
11797;SDS011;5956;51.428;6.682;2023-05-19T04:49:31;9.83;;;6.03;;
11797;SDS011;5956;51.428;6.682;2023-05-19T04:51:57;11.10;;;6.50;;
11797;SDS011;5956;51.428;6.682;2023-05-19T04:54:24;10.73;;;6.60;;
11797;SDS011;5956;51.428;6.682;2023-05-19T04:56:50;10.90;;;6.57;;
11797;SDS011;5956;51.428;6.682;2023-05-19T04:59:18;12.70;;;6.23;;
11797;SDS011;5956;51.428;6.682;2023-05-19T05:01:44;9.33;;;6.43;;
11797;SDS011;5956;51.428;6.682;2023-05-19T05:04:11;11.27;;;5.80;;
11797;SDS011;5956;51.428;6.682;2023-05-19T05:06:37;7.00;;;6.00;;
11797;SDS011;5956;51.428;6.682;2023-05-19T05:09:06;9.37;;;6.13;;
11797;SDS011;5956;51.428;6.682;2023-05-19T05:11:33;9.20;;;5.87;;
11797;SDS011;5956;51.428;6.682;2023-05-19T05:14:00;10.73;;;6.70;;
11797;SDS011;5956;51.428;6.682;2023-05-19T05:16:28;9.53;;;6.13;;
11797;SDS011;5956;51.428;6.682;2023-05-19T05:18:55;8.80;;;6.43;;
11797;SDS011;5956;51.428;6.682;2023-05-19T05:21:21;10.30;;;6.67;;
11797;SDS011;5956;51.428;6.682;2023-05-19T05:23:49;14.57;;;6.80;;
11797;SDS011;5956;51.428;6.682;2023-05-19T05:26:16;9.57;;;6.30;;
11797;SDS011;5956;51.428;6.682;2023-05-19T05:28:43;9.83;;;6.23;;
11797;SDS011;5956;51.428;6.682;2023-05-19T05:31:09;11.37;;;6.30;;
11797;SDS011;5956;51.428;6.682;2023-05-19T05:33:37;9.67;;;6.33;;
11797;SDS011;5956;51.428;6.682;2023-05-19T05:36:04;7.57;;;6.70;;
11797;SDS011;5956;51.428;6.682;2023-05-19T05:38:30;9.30;;;6.47;;
11797;SDS011;5956;51.428;6.682;2023-05-19T05:40:57;10.23;;;6.13;;
11797;SDS011;5956;51.428;6.682;2023-05-19T05:43:23;13.07;;;6.30;;
11797;SDS011;5956;51.428;6.682;2023-05-19T05:45:50;7.67;;;5.50;;
11797;SDS011;5956;51.428;6.682;2023-05-19T05:48:16;9.57;;;6.37;;
11797;SDS011;5956;51.428;6.682;2023-05-19T05:50:44;11.60;;;6.13;;
11797;SDS011;5956;51.428;6.682;2023-05-19T05:53:11;8.47;;;6.10;;
11797;SDS011;5956;51.428;6.682;2023-05-19T05:55:40;11.03;;;6.13;;
11797;SDS011;5956;51.428;6.682;2023-05-19T05:58:06;9.10;;;6.17;;
11797;SDS011;5956;51.428;6.682;2023-05-19T06:00:35;11.87;;;7.27;;
11797;SDS011;5956;51.428;6.682;2023-05-19T06:03:01;9.77;;;6.27;;
11797;SDS011;5956;51.428;6.682;2023-05-19T06:05:28;14.90;;;6.93;;
11797;SDS011;5956;51.428;6.682;2023-05-19T06:07:56;13.90;;;6.50;;
11797;SDS011;5956;51.428;6.682;2023-05-19T06:10:22;10.77;;;6.60;;
11797;SDS011;5956;51.428;6.682;2023-05-19T06:12:49;11.13;;;6.80;;
11797;SDS011;5956;51.428;6.682;2023-05-19T06:15:15;9.93;;;6.17;;
11797;SDS011;5956;51.428;6.682;2023-05-19T06:17:42;14.43;;;6.13;;
11797;SDS011;5956;51.428;6.682;2023-05-19T06:20:09;11.00;;;6.00;;
11797;SDS011;5956;51.428;6.682;2023-05-19T06:22:35;16.80;;;6.60;;
11797;SDS011;5956;51.428;6.682;2023-05-19T06:25:04;15.33;;;6.33;;
11797;SDS011;5956;51.428;6.682;2023-05-19T06:27:31;8.77;;;6.30;;
11797;SDS011;5956;51.428;6.682;2023-05-19T06:29:57;12.07;;;6.10;;
11797;SDS011;5956;51.428;6.682;2023-05-19T06:32:24;12.87;;;6.67;;
11797;SDS011;5956;51.428;6.682;2023-05-19T06:34:50;12.50;;;7.20;;
11797;SDS011;5956;51.428;6.682;2023-05-19T06:37:19;11.27;;;6.17;;
11797;SDS011;5956;51.428;6.682;2023-05-19T06:39:46;13.47;;;6.57;;
11797;SDS011;5956;51.428;6.682;2023-05-19T06:42:15;10.30;;;5.60;;
11797;SDS011;5956;51.428;6.682;2023-05-19T06:44:41;12.60;;;5.97;;
11797;SDS011;5956;51.428;6.682;2023-05-19T06:47:08;10.23;;;6.40;;
11797;SDS011;5956;51.428;6.682;2023-05-19T06:49:34;9.13;;;5.73;;
11797;SDS011;5956;51.428;6.682;2023-05-19T06:52:00;10.97;;;5.47;;
11797;SDS011;5956;51.428;6.682;2023-05-19T06:54:27;10.07;;;5.03;;
11797;SDS011;5956;51.428;6.682;2023-05-19T06:56:53;11.80;;;6.20;;
11797;SDS011;5956;51.428;6.682;2023-05-19T06:59:21;6.23;;;5.20;;
11797;SDS011;5956;51.428;6.682;2023-05-19T07:01:48;9.47;;;4.50;;
11797;SDS011;5956;51.428;6.682;2023-05-19T07:04:15;8.60;;;5.40;;
11797;SDS011;5956;51.428;6.682;2023-05-19T07:06:42;11.27;;;5.37;;
11797;SDS011;5956;51.428;6.682;2023-05-19T07:09:08;8.67;;;4.80;;
11797;SDS011;5956;51.428;6.682;2023-05-19T07:11:35;6.30;;;4.70;;
11797;SDS011;5956;51.428;6.682;2023-05-19T07:14:01;7.73;;;4.43;;
11797;SDS011;5956;51.428;6.682;2023-05-19T07:16:30;8.83;;;4.67;;
11797;SDS011;5956;51.428;6.682;2023-05-19T07:18:56;7.83;;;5.00;;
11797;SDS011;5956;51.428;6.682;2023-05-19T07:21:25;10.40;;;4.63;;
11797;SDS011;5956;51.428;6.682;2023-05-19T07:23:51;6.27;;;4.80;;
11797;SDS011;5956;51.428;6.682;2023-05-19T07:26:18;7.33;;;4.53;;
11797;SDS011;5956;51.428;6.682;2023-05-19T07:28:44;7.57;;;4.67;;
11797;SDS011;5956;51.428;6.682;2023-05-19T07:31:11;8.87;;;5.10;;
11797;SDS011;5956;51.428;6.682;2023-05-19T07:33:39;9.13;;;4.67;;
11797;SDS011;5956;51.428;6.682;2023-05-19T07:36:06;4.90;;;3.73;;
11797;SDS011;5956;51.428;6.682;2023-05-19T07:38:33;5.13;;;4.00;;
11797;SDS011;5956;51.428;6.682;2023-05-19T07:40:59;7.57;;;4.20;;
11797;SDS011;5956;51.428;6.682;2023-05-19T07:43:26;6.30;;;4.07;;
11797;SDS011;5956;51.428;6.682;2023-05-19T07:45:53;10.40;;;4.28;;
11797;SDS011;5956;51.428;6.682;2023-05-19T07:48:20;9.90;;;4.35;;
11797;SDS011;5956;51.428;6.682;2023-05-19T07:50:50;7.05;;;4.03;;
11797;SDS011;5956;51.428;6.682;2023-05-19T07:53:16;10.80;;;4.57;;
11797;SDS011;5956;51.428;6.682;2023-05-19T07:55:43;4.97;;;3.45;;
11797;SDS011;5956;51.428;6.682;2023-05-19T07:58:10;7.90;;;3.72;;
11797;SDS011;5956;51.428;6.682;2023-05-19T08:00:36;5.10;;;3.35;;
11797;SDS011;5956;51.428;6.682;2023-05-19T08:03:03;5.97;;;3.22;;
11797;SDS011;5956;51.428;6.682;2023-05-19T08:05:29;6.07;;;3.47;;
11797;SDS011;5956;51.428;6.682;2023-05-19T08:07:57;9.75;;;3.50;;
11797;SDS011;5956;51.428;6.682;2023-05-19T08:10:24;6.15;;;3.40;;
11797;SDS011;5956;51.428;6.682;2023-05-19T08:12:50;9.32;;;3.42;;
11797;SDS011;5956;51.428;6.682;2023-05-19T08:15:17;8.93;;;3.30;;
11797;SDS011;5956;51.428;6.682;2023-05-19T08:17:43;8.73;;;3.38;;
11797;SDS011;5956;51.428;6.682;2023-05-19T08:20:10;8.00;;;4.60;;
11797;SDS011;5956;51.428;6.682;2023-05-19T08:22:37;4.45;;;2.85;;
11797;SDS011;5956;51.428;6.682;2023-05-19T08:25:05;4.28;;;2.60;;
11797;SDS011;5956;51.428;6.682;2023-05-19T08:27:31;5.63;;;2.88;;
11797;SDS011;5956;51.428;6.682;2023-05-19T08:29:58;6.03;;;2.70;;
11797;SDS011;5956;51.428;6.682;2023-05-19T08:32:25;5.20;;;2.78;;
11797;SDS011;5956;51.428;6.682;2023-05-19T08:34:51;6.00;;;2.88;;
11797;SDS011;5956;51.428;6.682;2023-05-19T08:37:18;6.07;;;2.53;;
11797;SDS011;5956;51.428;6.682;2023-05-19T08:39:44;7.22;;;3.10;;
11797;SDS011;5956;51.428;6.682;2023-05-19T08:42:12;3.13;;;2.35;;
11797;SDS011;5956;51.428;6.682;2023-05-19T08:44:39;3.95;;;2.30;;
11797;SDS011;5956;51.428;6.682;2023-05-19T08:47:06;5.10;;;2.60;;
11797;SDS011;5956;51.428;6.682;2023-05-19T08:49:41;7.18;;;2.65;;
11797;SDS011;5956;51.428;6.682;2023-05-19T08:52:09;2.88;;;2.30;;
11797;SDS011;5956;51.428;6.682;2023-05-19T08:54:42;6.30;;;2.40;;
11797;SDS011;5956;51.428;6.682;2023-05-19T08:57:12;6.55;;;2.30;;
11797;SDS011;5956;51.428;6.682;2023-05-19T08:59:39;4.47;;;2.42;;
11797;SDS011;5956;51.428;6.682;2023-05-19T09:02:06;4.07;;;2.60;;
11797;SDS011;5956;51.428;6.682;2023-05-19T09:04:34;4.40;;;2.25;;
11797;SDS011;5956;51.428;6.682;2023-05-19T09:07:00;4.85;;;2.65;;
11797;SDS011;5956;51.428;6.682;2023-05-19T09:09:28;7.28;;;3.00;;
11797;SDS011;5956;51.428;6.682;2023-05-19T09:11:54;5.75;;;2.40;;
11797;SDS011;5956;51.428;6.682;2023-05-19T09:14:22;8.75;;;2.75;;
11797;SDS011;5956;51.428;6.682;2023-05-19T09:16:48;5.88;;;2.03;;
11797;SDS011;5956;51.428;6.682;2023-05-19T09:19:16;4.38;;;2.20;;
11797;SDS011;5956;51.428;6.682;2023-05-19T09:21:44;5.80;;;2.78;;
11797;SDS011;5956;51.428;6.682;2023-05-19T09:24:11;3.28;;;2.28;;
11797;SDS011;5956;51.428;6.682;2023-05-19T09:26:38;2.95;;;2.47;;
11797;SDS011;5956;51.428;6.682;2023-05-19T09:29:11;3.58;;;2.50;;
11797;SDS011;5956;51.428;6.682;2023-05-19T09:31:39;7.10;;;2.80;;
11797;SDS011;5956;51.428;6.682;2023-05-19T09:34:10;4.28;;;2.40;;
11797;SDS011;5956;51.428;6.682;2023-05-19T09:36:38;7.07;;;2.58;;
11797;SDS011;5956;51.428;6.682;2023-05-19T09:39:11;7.40;;;2.58;;
11797;SDS011;5956;51.428;6.682;2023-05-19T09:41:38;4.00;;;2.17;;
11797;SDS011;5956;51.428;6.682;2023-05-19T09:44:04;7.25;;;2.42;;
11797;SDS011;5956;51.428;6.682;2023-05-19T09:46:31;4.68;;;2.40;;
11797;SDS011;5956;51.428;6.682;2023-05-19T09:49:05;3.03;;;1.83;;
11797;SDS011;5956;51.428;6.682;2023-05-19T09:51:33;8.43;;;2.78;;
11797;SDS011;5956;51.428;6.682;2023-05-19T09:54:00;4.00;;;2.50;;
11797;SDS011;5956;51.428;6.682;2023-05-19T09:56:30;3.72;;;1.90;;
11797;SDS011;5956;51.428;6.682;2023-05-19T09:58:57;5.22;;;2.28;;
11797;SDS011;5956;51.428;6.682;2023-05-19T10:01:23;5.15;;;2.65;;
11797;SDS011;5956;51.428;6.682;2023-05-19T10:03:51;4.10;;;2.22;;
11797;SDS011;5956;51.428;6.682;2023-05-19T10:06:19;4.82;;;2.58;;
11797;SDS011;5956;51.428;6.682;2023-05-19T10:08:46;3.60;;;2.40;;
11797;SDS011;5956;51.428;6.682;2023-05-19T10:11:14;5.53;;;2.60;;
11797;SDS011;5956;51.428;6.682;2023-05-19T10:13:42;3.22;;;2.08;;
11797;SDS011;5956;51.428;6.682;2023-05-19T10:16:09;4.97;;;2.47;;
11797;SDS011;5956;51.428;6.682;2023-05-19T10:18:36;3.88;;;2.03;;
11797;SDS011;5956;51.428;6.682;2023-05-19T10:21:03;8.02;;;2.38;;
11797;SDS011;5956;51.428;6.682;2023-05-19T10:23:32;5.95;;;2.53;;
11797;SDS011;5956;51.428;6.682;2023-05-19T10:25:58;7.22;;;2.13;;
11797;SDS011;5956;51.428;6.682;2023-05-19T10:28:30;7.63;;;2.55;;
11797;SDS011;5956;51.428;6.682;2023-05-19T10:31:00;6.53;;;2.20;;
11797;SDS011;5956;51.428;6.682;2023-05-19T10:33:30;4.72;;;2.28;;
11797;SDS011;5956;51.428;6.682;2023-05-19T10:36:01;4.60;;;2.25;;
11797;SDS011;5956;51.428;6.682;2023-05-19T10:38:36;4.25;;;2.50;;
11797;SDS011;5956;51.428;6.682;2023-05-19T10:41:09;5.47;;;2.35;;
11797;SDS011;5956;51.428;6.682;2023-05-19T10:43:38;5.38;;;2.10;;
11797;SDS011;5956;51.428;6.682;2023-05-19T10:46:07;2.00;;;1.80;;
11797;SDS011;5956;51.428;6.682;2023-05-19T10:48:34;3.35;;;2.30;;
11797;SDS011;5956;51.428;6.682;2023-05-19T10:51:01;6.68;;;2.22;;
11797;SDS011;5956;51.428;6.682;2023-05-19T10:53:29;7.55;;;2.80;;
11797;SDS011;5956;51.428;6.682;2023-05-19T10:55:57;6.60;;;2.17;;
11797;SDS011;5956;51.428;6.682;2023-05-19T10:58:35;5.22;;;2.22;;
11797;SDS011;5956;51.428;6.682;2023-05-19T11:01:02;4.28;;;2.47;;
11797;SDS011;5956;51.428;6.682;2023-05-19T11:03:35;2.88;;;1.80;;
11797;SDS011;5956;51.428;6.682;2023-05-19T11:06:17;5.75;;;2.30;;
11797;SDS011;5956;51.428;6.682;2023-05-19T11:08:44;4.47;;;2.25;;
11797;SDS011;5956;51.428;6.682;2023-05-19T11:11:14;5.88;;;2.67;;
11797;SDS011;5956;51.428;6.682;2023-05-19T11:13:41;5.10;;;2.40;;
11797;SDS011;5956;51.428;6.682;2023-05-19T11:16:08;4.20;;;2.47;;
11797;SDS011;5956;51.428;6.682;2023-05-19T11:18:35;6.18;;;2.60;;
11797;SDS011;5956;51.428;6.682;2023-05-19T11:21:02;3.72;;;2.33;;
11797;SDS011;5956;51.428;6.682;2023-05-19T11:23:29;4.68;;;2.22;;
11797;SDS011;5956;51.428;6.682;2023-05-19T11:25:58;5.72;;;2.58;;
11797;SDS011;5956;51.428;6.682;2023-05-19T11:28:28;4.78;;;2.00;;
11797;SDS011;5956;51.428;6.682;2023-05-19T11:30:55;5.03;;;2.28;;
11797;SDS011;5956;51.428;6.682;2023-05-19T11:33:23;3.47;;;2.28;;
11797;SDS011;5956;51.428;6.682;2023-05-19T11:35:52;5.22;;;2.72;;
11797;SDS011;5956;51.428;6.682;2023-05-19T11:38:18;4.18;;;2.30;;
11797;SDS011;5956;51.428;6.682;2023-05-19T11:40:46;4.68;;;2.42;;
11797;SDS011;5956;51.428;6.682;2023-05-19T11:43:13;4.90;;;2.67;;
11797;SDS011;5956;51.428;6.682;2023-05-19T11:45:42;4.75;;;2.63;;
11797;SDS011;5956;51.428;6.682;2023-05-19T11:48:09;4.78;;;2.55;;
11797;SDS011;5956;51.428;6.682;2023-05-19T11:50:36;4.10;;;2.33;;
11797;SDS011;5956;51.428;6.682;2023-05-19T11:53:03;4.38;;;2.10;;
11797;SDS011;5956;51.428;6.682;2023-05-19T11:55:29;4.95;;;2.30;;
11797;SDS011;5956;51.428;6.682;2023-05-19T11:57:56;3.00;;;2.25;;
11797;SDS011;5956;51.428;6.682;2023-05-19T12:00:24;4.47;;;2.22;;
11797;SDS011;5956;51.428;6.682;2023-05-19T12:02:52;5.32;;;2.92;;
11797;SDS011;5956;51.428;6.682;2023-05-19T12:05:19;3.33;;;2.00;;
11797;SDS011;5956;51.428;6.682;2023-05-19T12:07:46;5.57;;;3.10;;
11797;SDS011;5956;51.428;6.682;2023-05-19T12:10:14;3.88;;;2.90;;
11797;SDS011;5956;51.428;6.682;2023-05-19T12:12:40;6.00;;;2.42;;
11797;SDS011;5956;51.428;6.682;2023-05-19T12:15:09;5.72;;;2.30;;
11797;SDS011;5956;51.428;6.682;2023-05-19T12:17:36;7.68;;;3.60;;
11797;SDS011;5956;51.428;6.682;2023-05-19T12:20:04;5.03;;;2.50;;
11797;SDS011;5956;51.428;6.682;2023-05-19T12:22:32;4.70;;;2.30;;
11797;SDS011;5956;51.428;6.682;2023-05-19T12:24:58;4.20;;;2.22;;
11797;SDS011;5956;51.428;6.682;2023-05-19T12:27:25;6.13;;;2.60;;
11797;SDS011;5956;51.428;6.682;2023-05-19T12:29:53;4.50;;;2.60;;
11797;SDS011;5956;51.428;6.682;2023-05-19T12:32:21;7.57;;;2.38;;
11797;SDS011;5956;51.428;6.682;2023-05-19T12:34:49;2.85;;;2.28;;
11797;SDS011;5956;51.428;6.682;2023-05-19T12:37:17;3.60;;;2.35;;
11797;SDS011;5956;51.428;6.682;2023-05-19T12:39:44;3.22;;;2.28;;
11797;SDS011;5956;51.428;6.682;2023-05-19T12:42:11;4.22;;;2.05;;
11797;SDS011;5956;51.428;6.682;2023-05-19T12:44:41;4.20;;;2.25;;
11797;SDS011;5956;51.428;6.682;2023-05-19T12:47:07;4.88;;;2.40;;
11797;SDS011;5956;51.428;6.682;2023-05-19T12:49:34;5.70;;;2.40;;
11797;SDS011;5956;51.428;6.682;2023-05-19T12:52:00;3.00;;;1.90;;
11797;SDS011;5956;51.428;6.682;2023-05-19T12:54:32;2.83;;;2.00;;
11797;SDS011;5956;51.428;6.682;2023-05-19T12:56:59;3.78;;;2.05;;
11797;SDS011;5956;51.428;6.682;2023-05-19T12:59:26;2.92;;;1.98;;
11797;SDS011;5956;51.428;6.682;2023-05-19T13:01:55;4.65;;;2.47;;
11797;SDS011;5956;51.428;6.682;2023-05-19T13:04:22;3.38;;;2.35;;
11797;SDS011;5956;51.428;6.682;2023-05-19T13:06:48;5.40;;;2.38;;
11797;SDS011;5956;51.428;6.682;2023-05-19T13:09:18;5.20;;;2.65;;
11797;SDS011;5956;51.428;6.682;2023-05-19T13:11:50;4.45;;;2.40;;
11797;SDS011;5956;51.428;6.682;2023-05-19T13:14:18;4.63;;;2.60;;
11797;SDS011;5956;51.428;6.682;2023-05-19T13:16:44;4.60;;;2.53;;
11797;SDS011;5956;51.428;6.682;2023-05-19T13:19:12;3.65;;;2.40;;
11797;SDS011;5956;51.428;6.682;2023-05-19T13:21:38;3.72;;;2.28;;
11797;SDS011;5956;51.428;6.682;2023-05-19T13:24:05;3.85;;;2.08;;
11797;SDS011;5956;51.428;6.682;2023-05-19T13:26:31;3.70;;;2.15;;
11797;SDS011;5956;51.428;6.682;2023-05-19T13:29:00;9.32;;;3.30;;
11797;SDS011;5956;51.428;6.682;2023-05-19T13:31:27;8.52;;;4.05;;
11797;SDS011;5956;51.428;6.682;2023-05-19T13:33:53;14.10;;;6.65;;
11797;SDS011;5956;51.428;6.682;2023-05-19T13:36:20;6.63;;;3.17;;
11797;SDS011;5956;51.428;6.682;2023-05-19T13:38:46;4.47;;;2.17;;
11797;SDS011;5956;51.428;6.682;2023-05-19T13:41:13;5.88;;;2.67;;
11797;SDS011;5956;51.428;6.682;2023-05-19T13:43:39;4.35;;;2.40;;
11797;SDS011;5956;51.428;6.682;2023-05-19T13:46:07;12.35;;;4.80;;
11797;SDS011;5956;51.428;6.682;2023-05-19T13:48:34;4.25;;;2.85;;
11797;SDS011;5956;51.428;6.682;2023-05-19T13:51:00;10.85;;;5.53;;
11797;SDS011;5956;51.428;6.682;2023-05-19T13:53:27;6.35;;;3.00;;
11797;SDS011;5956;51.428;6.682;2023-05-19T13:55:55;4.22;;;2.22;;
11797;SDS011;5956;51.428;6.682;2023-05-19T13:58:21;3.90;;;2.30;;
11797;SDS011;5956;51.428;6.682;2023-05-19T14:00:48;3.88;;;2.47;;
11797;SDS011;5956;51.428;6.682;2023-05-19T14:03:19;3.38;;;2.50;;
11797;SDS011;5956;51.428;6.682;2023-05-19T14:05:46;3.70;;;2.60;;
11797;SDS011;5956;51.428;6.682;2023-05-19T14:08:13;9.80;;;3.90;;
11797;SDS011;5956;51.428;6.682;2023-05-19T14:10:40;4.68;;;2.50;;
11797;SDS011;5956;51.428;6.682;2023-05-19T14:13:07;14.52;;;5.88;;
11797;SDS011;5956;51.428;6.682;2023-05-19T14:15:35;4.22;;;2.67;;
11797;SDS011;5956;51.428;6.682;2023-05-19T14:18:01;4.10;;;2.47;;
11797;SDS011;5956;51.428;6.682;2023-05-19T14:20:29;6.13;;;3.47;;
11797;SDS011;5956;51.428;6.682;2023-05-19T14:22:56;5.10;;;3.05;;
11797;SDS011;5956;51.428;6.682;2023-05-19T14:25:22;4.63;;;2.92;;
11797;SDS011;5956;51.428;6.682;2023-05-19T14:27:49;3.08;;;1.92;;
11797;SDS011;5956;51.428;6.682;2023-05-19T14:30:15;4.35;;;2.30;;
11797;SDS011;5956;51.428;6.682;2023-05-19T14:32:42;3.60;;;2.10;;
11797;SDS011;5956;51.428;6.682;2023-05-19T14:35:09;2.83;;;2.20;;
11797;SDS011;5956;51.428;6.682;2023-05-19T14:37:36;5.95;;;2.53;;
11797;SDS011;5956;51.428;6.682;2023-05-19T14:40:03;3.25;;;2.28;;
11797;SDS011;5956;51.428;6.682;2023-05-19T14:42:30;3.53;;;2.60;;
11797;SDS011;5956;51.428;6.682;2023-05-19T14:44:57;3.35;;;1.83;;
11797;SDS011;5956;51.428;6.682;2023-05-19T14:47:23;2.15;;;1.95;;
11797;SDS011;5956;51.428;6.682;2023-05-19T14:49:50;4.35;;;2.28;;
11797;SDS011;5956;51.428;6.682;2023-05-19T14:52:16;5.90;;;2.30;;
11797;SDS011;5956;51.428;6.682;2023-05-19T14:54:45;5.20;;;2.58;;
11797;SDS011;5956;51.428;6.682;2023-05-19T14:57:11;3.85;;;2.50;;
11797;SDS011;5956;51.428;6.682;2023-05-19T14:59:37;4.05;;;2.00;;
11797;SDS011;5956;51.428;6.682;2023-05-19T15:02:04;5.97;;;2.75;;
11797;SDS011;5956;51.428;6.682;2023-05-19T15:04:31;2.90;;;2.00;;
11797;SDS011;5956;51.428;6.682;2023-05-19T15:06:57;2.78;;;2.47;;